Lonepine, Montana
Current Conditions -  °F | °C
As of 11:55 PM on Sunday 21 Dec 2014 (Local Time) from KGPI Reporting Station
Overcast Overcast  
Wind Chill: 31°   Ceiling: 4800
Heat Index: 35°   Visibility: 10mi
Dew Point: 29°   Wind: 5mph
Humidity: 78%   Direction: 230°SW
Pressure: 29.82"   Gusts: NA
Location:  47.7°N, 114.64°W
Report Text: KGPI 220655Z 23004KT 10SM OVC048 02/M02 A2982 RMK AO2 SLP112 T00171017 400780000 $
Loading
Personal Weather Stations






























Interactive Weather Map New forecast layout! Learn more

10-Day Weather Forecast

Advertisements
Track Severe Weather on mobile